Nearby METAR Reports

 

KSJC - San Jose, California, USA
Distance from station: NE 9mi, 14km
Updated: Mon, 13-Jul-2020 10:53am PDT
Clear
Clear
 Wind from calm
Wind: Calm
Temperature: 75°F , 24°C
Dew Point: 54°F , 12°C
Humidity: 47%
Barometer: 29.87 inHg , 1011.5 hPa
Clouds: Clear
Visibility: 10 miles , 16 km
2020/07/13 17:53 KSJC 131753Z 00000KT 10SM CLR 24/12 A2987 RMK AO2 SLP115 T02390122 10239 20150 55000
KRHV - San Jose/Reid, California, USA
Distance from station: ENE 12mi, 19km
Updated: Mon, 13-Jul-2020 10:47am PDT
Clear
Clear
 Wind from varies
Wind: varies 3 mph , 6 km/h
Temperature: 73°F , 23°C
Dew Point: 54°F , 12°C
Humidity: 50%
Barometer: 29.88 inHg , 1011.9 hPa
Clouds: Clear
Visibility: 10 miles , 16 km
2020/07/13 17:47 KRHV 131747Z VRB03KT 10SM SKC 23/12 A2988
 
KPAO - Palo Alto, California, USA
Distance from station: NNW 14mi, 23km
Updated: Mon, 13-Jul-2020 10:47am PDT
Clear
Clear
 Wind from N
Wind: N 12 mph , 19 km/h
Temperature: 66°F , 19°C
Dew Point: 57°F , 14°C
Humidity: 73%
Barometer: 29.89 inHg , 1012.2 hPa
Clouds: Clear
Visibility: 10 miles , 16 km
2020/07/13 17:47 KPAO 131747Z 36010KT 10SM SKC 19/14 A2989
KOAK - Oakland, California, USA
Distance from station: NNW 31mi, 50km
Updated: Mon, 13-Jul-2020 10:53am PDT
Partly cloudy
Partly cloudy
 Wind from WNW
Wind: WNW 6 mph , 9 km/h
Temperature: 64°F , 18°C
Dew Point: 54°F , 12°C
Humidity: 68%
Barometer: 29.90 inHg , 1012.5 hPa
Clouds: Partly cloudy
Visibility: 10 miles , 16 km
Cloud details: Partly cloudy 1000 ft
2020/07/13 17:53 KOAK 131753Z 29005KT 10SM SCT010 18/12 A2990 RMK AO2 SLP125 T01780122 10183 20156 53007
 
KSQL - San Carlos Airpo, California, USA
Distance from station: NW 21mi, 34km
Updated: Mon, 13-Jul-2020 10:47am PDT
Few Clouds
Few Clouds
 Wind from W
Wind: W 9 mph , 15 km/h
Temperature: 68°F , 20°C
Dew Point: 54°F , 12°C
Humidity: 60%
Barometer: 29.88 inHg , 1011.9 hPa
Clouds: Few Clouds
Visibility: 10 miles , 16 km
Cloud details: Few Clouds 1000 ft
2020/07/13 17:47 KSQL 131747Z 27008KT 10SM FEW010 20/12 A2988
KSFO - San Francisco, California, USA
Distance from station: NW 30mi, 49km
Updated: Mon, 13-Jul-2020 10:56am PDT
Few Clouds
Few Clouds
 Wind from WNW
Wind: WNW 18 mph , 30 km/h
Temperature: 64°F , 18°C
Dew Point: 52°F , 11°C
Humidity: 64%
Barometer: 29.89 inHg , 1012.2 hPa
Clouds: Few Clouds
Visibility: 9 miles , 14 km
Cloud details: Few Clouds 900 ft
2020/07/13 17:56 KSFO 131756Z 30016KT 9SM FEW009 18/11 A2989 RMK AO2 SLP120 T01780111 10178 20128 53004
 
KE16 - San Martin, California, USA
Distance from station: ESE 27mi, 43km
Updated: Mon, 13-Jul-2020 10:50am PDT
Clear
Clear
 Wind from SE
Wind: SE 18 mph , 30 km/h
Temperature: 66°F , 19°C
Dew Point: 54°F , 12°C
Humidity: 64%
Barometer: 29.92 inHg , 1013.2 hPa
Clouds: Clear
Visibility: 10 miles , 16 km
2020/07/13 17:50 KE16 131750Z AUTO 13016KT 10SM CLR 19/12 A2992 RMK AO2 PWINO PNO
KWVI - Watsonville, California, USA
Distance from station: SSE 27mi, 44km
Updated: Mon, 13-Jul-2020 10:53am PDT
Overcast
Overcast
 Wind from SSE
Wind: SSE 6 mph , 9 km/h
Temperature: 61°F , 16°C
Dew Point: 55°F , 13°C
Humidity: 83%
Barometer: 29.95 inHg , 1014.2 hPa
Clouds: Overcast
Visibility: 10 miles , 16 km
Cloud details: Overcast 800 ft
2020/07/13 17:53 KWVI 131753Z AUTO 15005KT 10SM OVC008 16/13 A2995 RMK AO2 SLP141 T01560128 10156 20128 53008
 
KHAF - Half Moon Bay, California, USA
Distance from station: WNW 31mi, 50km
Updated: Mon, 13-Jul-2020 11:00am PDT
Mist, Overcast
Mist, Overcast
 Wind from SSW
Wind: SSW 6 mph , 9 km/h
Temperature: 55°F , 13°C
Dew Point: 54°F , 12°C
Humidity: 94%
Barometer: 29.94 inHg , 1013.9 hPa
Summary: Mist
Clouds: Overcast
Visibility: 2 miles , 3 km
Cloud details: Overcast 600 ft
2020/07/13 18:00 KHAF 131800Z AUTO 21005KT 2SM BR OVC006 13/12 A2994 RMK AO2
KHWD - Hayward, California, USA
Distance from station: N 28mi, 44km
Updated: Mon, 13-Jul-2020 10:54am PDT
Clear
Clear
 Wind from W
Wind: W 12 mph , 19 km/h
Temperature: 64°F , 18°C
Dew Point: 54°F , 12°C
Humidity: 68%
Barometer: 29.89 inHg , 1012.2 hPa
Clouds: Clear
Visibility: 10 miles , 16 km
2020/07/13 17:54 KHWD 131754Z 28010KT 10SM CLR 18/12 A2989 RMK AO2 SLP130 T01830117 10183 20144 53004
 
KLVK - Livermore, California, USA
Distance from station: NNE 31mi, 51km
Updated: Mon, 13-Jul-2020 10:53am PDT
Clear
Clear
 Wind from W
Wind: W 10 mph , 17 km/h
Temperature: 75°F , 24°C
Dew Point: 54°F , 12°C
Humidity: 47%
Barometer: 29.85 inHg , 1010.8 hPa
Clouds: Clear
Visibility: 10 miles , 16 km
2020/07/13 17:53 KLVK 131753Z 28009KT 10SM CLR 24/12 A2985 RMK AO2 SLP105 T02440122 10244 20144 53001